Time;durP1;ratioP1;P1;durP2;ratioP2;P2;SDS_P1;SDS_P2;PMS_P1;PMS_P2;Temp;Humidity;BMP_temperature;BMP_pressure;BME280_temperature;BME280_humidity;BME280_pressure;Samples;Min_cycle;Max_cycle;Signal;HPM_P1;HPM_P2
2022/11/23 00:01:39;;;;;;;8.38;3.33;;;;;;;;;;4985508;28;20707;-66
2022/11/23 00:04:05;;;;;;;8.23;3.08;;;;;;;;;;4973488;28;20252;-65
2022/11/23 00:06:30;;;;;;;8.88;3.25;;;;;;;;;;4978098;28;20213;-65
2022/11/23 00:08:55;;;;;;;11.10;3.78;;;;;;;;;;4998712;28;20216;-66
2022/11/23 00:11:21;;;;;;;8.60;3.40;;;;;;;;;;5005178;28;20220;-65
2022/11/23 00:13:46;;;;;;;8.23;3.33;;;;;;;;;;5004614;28;20291;-66
2022/11/23 00:16:13;;;;;;;7.57;3.33;;;;;;;;;;4988631;28;20213;-66
2022/11/23 00:18:38;;;;;;;6.55;2.97;;;;;;;;;;5004883;28;20316;-65
2022/11/23 00:21:10;;;;;;;8.57;3.55;;;;;;;;;;5003961;28;20680;-66
2022/11/23 00:23:35;;;;;;;9.70;3.90;;;;;;;;;;5003853;28;20291;-65
2022/11/23 00:26:00;;;;;;;8.90;3.58;;;;;;;;;;4997895;28;20200;-64
2022/11/23 00:28:26;;;;;;;8.63;4.07;;;;;;;;;;4996139;28;20209;-66
2022/11/23 00:30:51;;;;;;;10.77;4.18;;;;;;;;;;4996902;28;20216;-65
2022/11/23 00:33:16;;;;;;;7.82;3.70;;;;;;;;;;4986871;28;20311;-66
2022/11/23 00:35:42;;;;;;;10.43;4.07;;;;;;;;;;4985266;28;20612;-65
2022/11/23 00:38:07;;;;;;;11.50;4.13;;;;;;;;;;4984874;28;20209;-65
2022/11/23 00:40:32;;;;;;;8.95;4.38;;;;;;;;;;4985724;28;20225;-66
2022/11/23 00:42:57;;;;;;;10.82;4.50;;;;;;;;;;4985007;28;20298;-66
2022/11/23 00:45:23;;;;;;;11.63;4.60;;;;;;;;;;4984928;28;20251;-66
2022/11/23 00:47:48;;;;;;;10.90;4.20;;;;;;;;;;4981228;28;20751;-66
2022/11/23 00:50:13;;;;;;;8.95;4.55;;;;;;;;;;4976272;28;20225;-66
2022/11/23 00:52:39;;;;;;;11.90;4.55;;;;;;;;;;4977275;28;20295;-66
2022/11/23 00:55:04;;;;;;;12.48;4.07;;;;;;;;;;4981337;28;20213;-65
2022/11/23 00:57:29;;;;;;;10.27;4.50;;;;;;;;;;4984906;28;20219;-66
2022/11/23 00:59:55;;;;;;;10.30;4.78;;;;;;;;;;4985190;28;20731;-65
2022/11/23 01:02:20;;;;;;;11.38;4.70;;;;;;;;;;4985287;28;20217;-65
2022/11/23 01:04:45;;;;;;;11.98;5.53;;;;;;;;;;4984435;28;20217;-65
2022/11/23 01:07:10;;;;;;;12.60;5.30;;;;;;;;;;4984959;28;20247;-65
2022/11/23 01:09:36;;;;;;;10.50;4.60;;;;;;;;;;4982430;28;20708;-65
2022/11/23 01:12:01;;;;;;;11.73;5.28;;;;;;;;;;4977864;28;20228;-65
2022/11/23 01:14:26;;;;;;;14.30;5.10;;;;;;;;;;4976969;28;20292;-65
2022/11/23 01:16:51;;;;;;;13.10;5.40;;;;;;;;;;4978132;28;21267;-65
2022/11/23 01:19:17;;;;;;;12.77;5.68;;;;;;;;;;4984206;28;20225;-65
2022/11/23 01:21:42;;;;;;;15.15;5.40;;;;;;;;;;5002323;28;20683;-65
2022/11/23 01:24:10;;;;;;;12.63;5.10;;;;;;;;;;5003009;28;20300;-65
2022/11/23 01:26:35;;;;;;;13.23;5.38;;;;;;;;;;5003159;28;20209;-65
2022/11/23 01:29:00;;;;;;;12.35;4.55;;;;;;;;;;5002612;28;20217;-65
2022/11/23 01:31:26;;;;;;;11.20;4.67;;;;;;;;;;5003333;28;20220;-65
2022/11/23 01:33:55;;;;;;;10.60;4.50;;;;;;;;;;4997562;28;20270;-65
2022/11/23 01:36:21;;;;;;;11.40;4.32;;;;;;;;;;4995562;28;20217;-65
2022/11/23 01:38:46;;;;;;;11.65;4.32;;;;;;;;;;4994688;28;20316;-65
2022/11/23 01:41:12;;;;;;;10.90;4.40;;;;;;;;;;4983958;28;20240;-65
2022/11/23 01:43:38;;;;;;;14.93;4.60;;;;;;;;;;5002912;28;20259;-65
2022/11/23 01:46:03;;;;;;;12.00;4.55;;;;;;;;;;4998148;28;20217;-65
2022/11/23 01:48:31;;;;;;;12.23;4.43;;;;;;;;;;4984266;28;20221;-65
2022/11/23 01:50:57;;;;;;;11.00;4.25;;;;;;;;;;5001400;28;20671;-65
2022/11/23 01:53:22;;;;;;;14.02;4.65;;;;;;;;;;5000978;28;20234;-65
2022/11/23 01:55:48;;;;;;;15.57;4.40;;;;;;;;;;4998327;28;20213;-65
2022/11/23 01:58:13;;;;;;;12.90;4.57;;;;;;;;;;4993689;28;20273;-65
2022/11/23 02:00:39;;;;;;;15.82;4.10;;;;;;;;;;4993177;28;20224;-65
2022/11/23 02:03:05;;;;;;;15.25;4.03;;;;;;;;;;4985406;28;20217;-65
2022/11/23 02:05:31;;;;;;;14.77;3.97;;;;;;;;;;5001975;28;21133;-65
2022/11/23 02:07:57;;;;;;;11.45;3.75;;;;;;;;;;5002545;28;20218;-65
2022/11/23 02:10:22;;;;;;;13.73;3.55;;;;;;;;;;5001481;28;20216;-65
2022/11/23 02:12:48;;;;;;;14.48;4.15;;;;;;;;;;5002706;28;20587;-65
2022/11/23 02:15:13;;;;;;;12.85;3.65;;;;;;;;;;4998278;28;20304;-64
2022/11/23 02:17:38;;;;;;;16.27;4.07;;;;;;;;;;4999571;28;20221;-65
2022/11/23 02:20:06;;;;;;;12.10;3.63;;;;;;;;;;4989836;28;20327;-64
2022/11/23 02:22:34;;;;;;;16.13;4.05;;;;;;;;;;4993147;28;20217;-65
2022/11/23 02:24:59;;;;;;;12.82;3.63;;;;;;;;;;4992294;28;20575;-65
2022/11/23 02:27:24;;;;;;;10.65;4.00;;;;;;;;;;4991152;28;20321;-65
2022/11/23 02:29:50;;;;;;;12.63;3.33;;;;;;;;;;4992321;28;20205;-65
2022/11/23 02:32:22;;;;;;;11.75;3.13;;;;;;;;;;4991872;28;20217;-65
2022/11/23 02:34:47;;;;;;;14.23;3.53;;;;;;;;;;4992518;28;20240;-65
2022/11/23 02:37:13;;;;;;;14.77;3.80;;;;;;;;;;4993045;28;20216;-65
2022/11/23 02:39:39;;;;;;;12.80;3.20;;;;;;;;;;4991717;28;20697;-65
2022/11/23 02:42:05;;;;;;;13.48;3.20;;;;;;;;;;4990972;28;20208;-65
2022/11/23 02:44:30;;;;;;;10.23;3.10;;;;;;;;;;4992067;28;20211;-65
2022/11/23 02:46:55;;;;;;;14.18;3.10;;;;;;;;;;5007564;28;20223;-65
2022/11/23 02:49:20;;;;;;;11.88;3.10;;;;;;;;;;5011370;28;20211;-65
2022/11/23 02:51:46;;;;;;;15.02;4.05;;;;;;;;;;5012734;28;20300;-65
2022/11/23 02:54:11;;;;;;;12.10;2.85;;;;;;;;;;5012274;28;20216;-65
2022/11/23 02:56:36;;;;;;;11.43;3.03;;;;;;;;;;5012029;28;20623;-65
2022/11/23 02:59:01;;;;;;;9.93;2.90;;;;;;;;;;5012000;28;20236;-64
2022/11/23 03:01:27;;;;;;;12.02;3.33;;;;;;;;;;5011689;28;20281;-65
2022/11/23 03:03:52;;;;;;;15.48;3.67;;;;;;;;;;4992079;28;20220;-65
2022/11/23 03:06:17;;;;;;;10.73;3.20;;;;;;;;;;4992605;28;20712;-65
2022/11/23 03:08:42;;;;;;;12.88;3.08;;;;;;;;;;4993070;28;20220;-65
2022/11/23 03:11:08;;;;;;;13.82;3.42;;;;;;;;;;4991474;28;20216;-65
2022/11/23 03:13:33;;;;;;;9.43;3.00;;;;;;;;;;4993172;28;20571;-65
2022/11/23 03:15:58;;;;;;;10.63;3.05;;;;;;;;;;4992850;28;20219;-65
2022/11/23 03:18:24;;;;;;;10.43;2.65;;;;;;;;;;4990841;28;20213;-64
2022/11/23 03:20:49;;;;;;;13.95;2.70;;;;;;;;;;5001562;28;20217;-65
2022/11/23 03:23:15;;;;;;;10.02;2.92;;;;;;;;;;4993206;28;20213;-65
2022/11/23 03:25:40;;;;;;;14.73;3.00;;;;;;;;;;4973844;28;20583;-65
2022/11/23 03:28:05;;;;;;;13.23;3.15;;;;;;;;;;4983251;28;20210;-65
2022/11/23 03:30:30;;;;;;;11.80;2.95;;;;;;;;;;4972957;28;20670;-64
2022/11/23 03:32:56;;;;;;;10.32;2.63;;;;;;;;;;4977941;28;20217;-65
2022/11/23 03:35:21;;;;;;;10.20;2.53;;;;;;;;;;4972696;28;20213;-64
2022/11/23 03:37:46;;;;;;;10.57;2.58;;;;;;;;;;4972825;28;20218;-65
2022/11/23 03:40:12;;;;;;;11.20;2.63;;;;;;;;;;4993397;28;20274;-64
2022/11/23 03:42:38;;;;;;;11.38;2.40;;;;;;;;;;5002782;28;20208;-65
2022/11/23 03:45:04;;;;;;;11.65;2.55;;;;;;;;;;5011261;28;20239;-64
2022/11/23 03:47:29;;;;;;;11.70;2.45;;;;;;;;;;4993613;28;20232;-64
2022/11/23 03:49:54;;;;;;;12.13;2.53;;;;;;;;;;4992386;28;20217;-65
2022/11/23 03:52:19;;;;;;;10.75;2.38;;;;;;;;;;4991397;28;20225;-64
2022/11/23 03:54:45;;;;;;;10.10;2.35;;;;;;;;;;4992869;28;20225;-65
2022/11/23 03:57:11;;;;;;;12.70;3.22;;;;;;;;;;4991846;28;20752;-64
2022/11/23 03:59:36;;;;;;;10.82;1.88;;;;;;;;;;4991693;28;20316;-65
2022/11/23 04:02:01;;;;;;;8.88;2.30;;;;;;;;;;4981515;28;20240;-64
2022/11/23 04:04:26;;;;;;;9.88;2.40;;;;;;;;;;4974897;28;20217;-65
2022/11/23 04:06:52;;;;;;;11.25;2.25;;;;;;;;;;4979344;28;20224;-65
2022/11/23 04:09:17;;;;;;;12.98;2.50;;;;;;;;;;4985719;28;20224;-65
2022/11/23 04:11:42;;;;;;;8.88;2.70;;;;;;;;;;4986003;28;20217;-65
2022/11/23 04:14:08;;;;;;;10.88;2.65;;;;;;;;;;4985528;28;20215;-64
2022/11/23 04:16:33;;;;;;;11.63;2.55;;;;;;;;;;4986411;28;20213;-65
2022/11/23 04:18:58;;;;;;;15.05;2.80;;;;;;;;;;4985886;28;20225;-65
2022/11/23 04:21:23;;;;;;;8.50;2.28;;;;;;;;;;4983237;28;20236;-65
2022/11/23 04:23:49;;;;;;;11.15;2.65;;;;;;;;;;4974315;28;20372;-65
2022/11/23 04:26:14;;;;;;;11.80;2.40;;;;;;;;;;4977562;28;20201;-65
2022/11/23 04:28:39;;;;;;;11.88;2.60;;;;;;;;;;4978315;28;20669;-65
2022/11/23 04:31:04;;;;;;;10.13;2.47;;;;;;;;;;4985456;28;20274;-64
2022/11/23 04:33:30;;;;;;;7.32;2.30;;;;;;;;;;4985263;28;20289;-65
2022/11/23 04:35:56;;;;;;;10.40;2.60;;;;;;;;;;4985525;28;20221;-65
2022/11/23 04:38:21;;;;;;;13.35;2.80;;;;;;;;;;4992072;28;20212;-65
2022/11/23 04:40:47;;;;;;;11.77;2.63;;;;;;;;;;4988780;28;21110;-65
2022/11/23 04:43:12;;;;;;;9.57;2.47;;;;;;;;;;5002641;28;20212;-65
2022/11/23 04:45:38;;;;;;;8.20;2.70;;;;;;;;;;4995739;28;20213;-65
2022/11/23 04:48:04;;;;;;;8.85;2.60;;;;;;;;;;4976593;28;20300;-64
2022/11/23 04:50:29;;;;;;;9.30;2.80;;;;;;;;;;4977902;28;20251;-65
2022/11/23 04:52:54;;;;;;;9.45;2.78;;;;;;;;;;4983729;28;20304;-65
2022/11/23 04:55:19;;;;;;;8.63;2.38;;;;;;;;;;4984682;28;20589;-65
2022/11/23 04:57:45;;;;;;;9.93;2.30;;;;;;;;;;4985471;28;20574;-65
2022/11/23 05:00:10;;;;;;;12.57;2.83;;;;;;;;;;5018671;28;20323;-65
2022/11/23 05:02:36;;;;;;;7.93;2.20;;;;;;;;;;5003679;28;20216;-64
2022/11/23 05:05:01;;;;;;;12.75;2.40;;;;;;;;;;5004124;28;20692;-64
2022/11/23 05:07:26;;;;;;;11.88;2.78;;;;;;;;;;5000514;28;20230;-65
2022/11/23 05:09:51;;;;;;;11.63;2.47;;;;;;;;;;4990453;28;20240;-65
2022/11/23 05:12:17;;;;;;;10.98;2.80;;;;;;;;;;4976447;28;20225;-65
2022/11/23 05:14:42;;;;;;;14.60;2.75;;;;;;;;;;4981480;28;20217;-65
2022/11/23 05:17:07;;;;;;;12.85;2.40;;;;;;;;;;4984019;28;20213;-66
2022/11/23 05:19:32;;;;;;;8.98;2.20;;;;;;;;;;5000714;28;20224;-65
2022/11/23 05:21:58;;;;;;;10.57;2.40;;;;;;;;;;4985416;28;20552;-65
2022/11/23 05:24:23;;;;;;;10.48;2.63;;;;;;;;;;4983226;28;20228;-65
2022/11/23 05:26:48;;;;;;;13.35;2.80;;;;;;;;;;4985097;28;20213;-65
2022/11/23 05:29:13;;;;;;;13.70;3.20;;;;;;;;;;4983024;28;20217;-65
2022/11/23 05:31:39;;;;;;;10.70;2.42;;;;;;;;;;4984696;28;20224;-65
2022/11/23 05:34:04;;;;;;;13.00;2.65;;;;;;;;;;4976388;28;20209;-64
2022/11/23 05:36:29;;;;;;;10.00;2.42;;;;;;;;;;4977703;28;20606;-65
2022/11/23 05:38:55;;;;;;;9.45;2.40;;;;;;;;;;4983994;28;20227;-66
2022/11/23 05:41:20;;;;;;;14.50;2.42;;;;;;;;;;4984346;28;20225;-65
2022/11/23 05:43:45;;;;;;;11.20;3.03;;;;;;;;;;5002769;28;20216;-66
2022/11/23 05:46:10;;;;;;;15.38;2.50;;;;;;;;;;4995509;28;20296;-65
2022/11/23 05:48:36;;;;;;;11.65;2.30;;;;;;;;;;4984400;28;20209;-66
2022/11/23 05:51:01;;;;;;;15.88;3.53;;;;;;;;;;4983576;28;20239;-65
2022/11/23 05:53:26;;;;;;;11.50;2.90;;;;;;;;;;4996520;28;20216;-66
2022/11/23 05:55:52;;;;;;;16.70;4.25;;;;;;;;;;4995749;28;20208;-65
2022/11/23 05:58:17;;;;;;;9.48;2.90;;;;;;;;;;5000969;28;20303;-65
2022/11/23 06:00:42;;;;;;;12.55;3.40;;;;;;;;;;4997781;28;20233;-69
2022/11/23 06:03:07;;;;;;;14.20;3.47;;;;;;;;;;5011323;28;20208;-68
2022/11/23 06:05:33;;;;;;;20.45;7.10;;;;;;;;;;5012925;28;20252;-64
2022/11/23 06:07:58;;;;;;;10.87;3.10;;;;;;;;;;5012714;28;20423;-66
2022/11/23 06:10:23;;;;;;;15.93;3.33;;;;;;;;;;5012618;28;20656;-63
2022/11/23 06:12:48;;;;;;;13.50;4.20;;;;;;;;;;5010996;28;20423;-65
2022/11/23 06:15:14;;;;;;;13.82;3.22;;;;;;;;;;5007834;28;20212;-65
2022/11/23 06:17:39;;;;;;;17.58;4.38;;;;;;;;;;4985717;28;20209;-64
2022/11/23 06:20:05;;;;;;;12.88;3.60;;;;;;;;;;4983853;28;20234;-65
2022/11/23 06:22:30;;;;;;;11.45;3.28;;;;;;;;;;4976747;28;20213;-64
2022/11/23 06:24:56;;;;;;;13.18;3.55;;;;;;;;;;4985706;28;20353;-64
2022/11/23 06:27:21;;;;;;;14.65;3.35;;;;;;;;;;4983896;28;20662;-64
2022/11/23 06:29:46;;;;;;;15.43;3.17;;;;;;;;;;4984753;28;20262;-64
2022/11/23 06:32:11;;;;;;;13.52;3.03;;;;;;;;;;4985273;28;20213;-63
2022/11/23 06:34:37;;;;;;;11.90;2.88;;;;;;;;;;5008183;28;20212;-63
2022/11/23 06:37:02;;;;;;;11.85;2.90;;;;;;;;;;5012563;28;20260;-64
2022/11/23 06:39:27;;;;;;;13.32;2.40;;;;;;;;;;4995191;28;20247;-64
2022/11/23 06:41:53;;;;;;;11.70;2.20;;;;;;;;;;4990832;28;20207;-63
2022/11/23 06:44:18;;;;;;;12.68;2.60;;;;;;;;;;4992735;28;20205;-63
2022/11/23 06:46:43;;;;;;;11.95;2.42;;;;;;;;;;5005925;28;20239;-64
2022/11/23 06:49:09;;;;;;;14.75;2.95;;;;;;;;;;5011618;28;20216;-63
2022/11/23 06:51:34;;;;;;;15.27;3.05;;;;;;;;;;5012787;28;20208;-64
2022/11/23 06:53:59;;;;;;;11.27;2.90;;;;;;;;;;5012375;28;20615;-63
2022/11/23 06:56:24;;;;;;;14.52;2.80;;;;;;;;;;5011647;28;20220;-63
2022/11/23 06:58:50;;;;;;;15.52;3.15;;;;;;;;;;5012545;28;20585;-63
2022/11/23 07:01:15;;;;;;;17.65;3.00;;;;;;;;;;5011267;28;20228;-64
2022/11/23 07:03:40;;;;;;;17.70;3.30;;;;;;;;;;4985138;28;20265;-64
2022/11/23 07:06:06;;;;;;;13.32;3.25;;;;;;;;;;4981761;28;20245;-63
2022/11/23 07:08:31;;;;;;;13.35;3.22;;;;;;;;;;5010549;28;20211;-63
2022/11/23 07:10:58;;;;;;;15.25;3.60;;;;;;;;;;5006577;28;20291;-64
2022/11/23 07:13:24;;;;;;;12.15;2.58;;;;;;;;;;4998282;28;20363;-63
2022/11/23 07:15:49;;;;;;;25.63;8.48;;;;;;;;;;5001971;28;20655;-63
2022/11/23 07:18:14;;;;;;;70.40;32.70;;;;;;;;;;4992402;28;20208;-64
2022/11/23 07:20:39;;;;;;;79.35;35.55;;;;;;;;;;4992771;28;20236;-63
2022/11/23 07:23:05;;;;;;;19.10;6.28;;;;;;;;;;4990293;28;20215;-64
2022/11/23 07:25:32;;;;;;;15.13;3.25;;;;;;;;;;4991847;28;20316;-63
2022/11/23 07:27:57;;;;;;;17.48;4.00;;;;;;;;;;4992813;28;20217;-63
2022/11/23 07:30:23;;;;;;;14.43;3.28;;;;;;;;;;4991614;28;20304;-64
2022/11/23 07:32:48;;;;;;;13.00;2.50;;;;;;;;;;4992657;28;20355;-63
2022/11/23 07:35:13;;;;;;;13.85;2.42;;;;;;;;;;4992411;28;20665;-64
2022/11/23 07:37:39;;;;;;;12.13;2.30;;;;;;;;;;4991763;28;20209;-63
2022/11/23 07:40:04;;;;;;;15.27;3.25;;;;;;;;;;5002107;28;20231;-64
2022/11/23 07:42:30;;;;;;;19.70;3.10;;;;;;;;;;5005304;28;20208;-66
2022/11/23 07:44:55;;;;;;;16.33;2.70;;;;;;;;;;5015408;28;20216;-66
2022/11/23 07:47:21;;;;;;;15.30;2.97;;;;;;;;;;4997554;28;20247;-66
2022/11/23 07:49:46;;;;;;;16.63;3.15;;;;;;;;;;4996534;28;20205;-66
2022/11/23 07:52:11;;;;;;;11.23;2.40;;;;;;;;;;4994864;28;20681;-66
2022/11/23 07:54:36;;;;;;;17.45;2.58;;;;;;;;;;4996397;28;20227;-66
2022/11/23 07:57:02;;;;;;;15.40;2.50;;;;;;;;;;4995868;28;20224;-65
2022/11/23 07:59:28;;;;;;;13.48;2.70;;;;;;;;;;4995317;28;20312;-66
2022/11/23 08:01:53;;;;;;;13.95;2.20;;;;;;;;;;4995842;28;20205;-66
2022/11/23 08:04:18;;;;;;;12.27;2.50;;;;;;;;;;4995673;28;20219;-66
2022/11/23 08:06:44;;;;;;;14.07;2.53;;;;;;;;;;4995318;28;20211;-66
2022/11/23 08:09:09;;;;;;;12.75;2.20;;;;;;;;;;4995461;28;20209;-66
2022/11/23 08:11:34;;;;;;;12.55;2.35;;;;;;;;;;4995357;28;20205;-66
2022/11/23 08:13:59;;;;;;;13.82;2.40;;;;;;;;;;4994597;28;20582;-67
2022/11/23 08:16:25;;;;;;;15.93;2.42;;;;;;;;;;5009667;28;20240;-66
2022/11/23 08:18:50;;;;;;;12.70;2.20;;;;;;;;;;5014528;28;20211;-66
2022/11/23 08:21:15;;;;;;;15.15;2.42;;;;;;;;;;5015035;28;20212;-65
2022/11/23 08:23:41;;;;;;;14.05;2.40;;;;;;;;;;5012557;28;20212;-66
2022/11/23 08:26:06;;;;;;;12.80;2.65;;;;;;;;;;5002401;28;20594;-65
2022/11/23 08:28:31;;;;;;;13.90;2.70;;;;;;;;;;4995704;28;20213;-66
2022/11/23 08:30:57;;;;;;;16.02;2.35;;;;;;;;;;4995606;28;20217;-66
2022/11/23 08:33:22;;;;;;;13.52;2.38;;;;;;;;;;4994274;28;20543;-66
2022/11/23 08:35:47;;;;;;;15.13;2.30;;;;;;;;;;4995691;28;20209;-66
2022/11/23 08:38:12;;;;;;;14.50;2.38;;;;;;;;;;4994702;28;20209;-65
2022/11/23 08:40:38;;;;;;;15.50;2.25;;;;;;;;;;5009043;28;20235;-65
2022/11/23 08:43:03;;;;;;;11.88;2.20;;;;;;;;;;5014685;28;20213;-65
2022/11/23 08:45:28;;;;;;;12.80;2.50;;;;;;;;;;5012469;28;20538;-66
2022/11/23 08:47:58;;;;;;;13.82;2.42;;;;;;;;;;4994337;28;20217;-66
2022/11/23 08:50:23;;;;;;;11.55;2.60;;;;;;;;;;4994913;28;20221;-65
2022/11/23 08:52:53;;;;;;;15.32;2.70;;;;;;;;;;4994525;28;20703;-66
2022/11/23 08:55:18;;;;;;;13.23;2.47;;;;;;;;;;4994218;28;20258;-66
2022/11/23 08:57:43;;;;;;;13.65;2.83;;;;;;;;;;5000360;28;20295;-65
2022/11/23 09:00:09;;;;;;;16.95;3.40;;;;;;;;;;5013968;28;20227;-65
2022/11/23 09:02:34;;;;;;;11.85;2.75;;;;;;;;;;5013604;28;20240;-65
2022/11/23 09:04:59;;;;;;;12.57;2.30;;;;;;;;;;5014665;28;20215;-65
2022/11/23 09:07:25;;;;;;;12.13;2.88;;;;;;;;;;5013673;28;20212;-65
2022/11/23 09:09:50;;;;;;;16.75;3.00;;;;;;;;;;5013862;28;20209;-65
2022/11/23 09:12:15;;;;;;;8.57;1.95;;;;;;;;;;5014200;28;20371;-65
2022/11/23 09:14:40;;;;;;;14.32;1.90;;;;;;;;;;4996944;28;20212;-66
2022/11/23 09:17:06;;;;;;;19.75;2.58;;;;;;;;;;5013377;28;20217;-65
2022/11/23 09:19:31;;;;;;;12.98;2.42;;;;;;;;;;5014149;28;20228;-65
2022/11/23 09:21:56;;;;;;;12.43;2.17;;;;;;;;;;5005668;28;20210;-66
2022/11/23 09:24:22;;;;;;;15.15;2.28;;;;;;;;;;4994317;28;20537;-66
2022/11/23 09:26:47;;;;;;;11.18;2.10;;;;;;;;;;4994655;28;20205;-66
2022/11/23 09:29:12;;;;;;;12.30;2.05;;;;;;;;;;4993252;28;20546;-66
2022/11/23 09:31:38;;;;;;;11.32;2.00;;;;;;;;;;4994526;28;20217;-65
2022/11/23 09:34:03;;;;;;;12.52;2.22;;;;;;;;;;4992713;28;20677;-65
2022/11/23 09:36:28;;;;;;;11.73;2.38;;;;;;;;;;4993343;28;20670;-65
2022/11/23 09:38:54;;;;;;;10.88;1.77;;;;;;;;;;4994681;28;20213;-63
2022/11/23 09:41:37;;;;;;;13.25;2.13;;;;;;;;;;5013413;28;20845;-64
2022/11/23 09:44:06;;;;;;;10.07;2.50;;;;;;;;;;5008313;28;20220;-63
2022/11/23 09:46:32;;;;;;;8.90;2.20;;;;;;;;;;4995271;28;20219;-62
2022/11/23 09:49:07;;;;;;;10.25;1.92;;;;;;;;;;5001767;28;20206;-63
2022/11/23 09:51:33;;;;;;;13.23;2.20;;;;;;;;;;4979189;28;20240;-63
2022/11/23 09:53:59;;;;;;;13.23;2.35;;;;;;;;;;4973648;28;20206;-63
2022/11/23 09:56:26;;;;;;;11.63;2.00;;;;;;;;;;4974341;28;20213;-63
2022/11/23 09:58:53;;;;;;;12.35;2.20;;;;;;;;;;4972601;28;20238;-63
2022/11/23 10:01:18;;;;;;;9.57;2.92;;;;;;;;;;4974285;28;20206;-63
2022/11/23 10:03:44;;;;;;;11.55;2.40;;;;;;;;;;4972892;28;20205;-63
2022/11/23 10:06:09;;;;;;;8.85;2.13;;;;;;;;;;4971490;28;20221;-63
2022/11/23 10:08:37;;;;;;;12.38;2.88;;;;;;;;;;4974490;28;20206;-63
2022/11/23 10:11:06;;;;;;;12.00;2.10;;;;;;;;;;4971961;28;20292;-63
2022/11/23 10:13:33;;;;;;;15.05;2.40;;;;;;;;;;4983279;28;20220;-63
2022/11/23 10:16:02;;;;;;;11.65;2.35;;;;;;;;;;5000446;28;20250;-63
2022/11/23 10:18:28;;;;;;;12.00;2.20;;;;;;;;;;5012480;28;20699;-63
2022/11/23 10:21:05;;;;;;;9.35;1.85;;;;;;;;;;5012611;28;20231;-63
2022/11/23 10:23:39;;;;;;;8.45;1.80;;;;;;;;;;5012965;28;20208;-63
2022/11/23 10:26:06;;;;;;;9.60;2.40;;;;;;;;;;5010911;28;20209;-63
2022/11/23 10:28:31;;;;;;;9.88;2.00;;;;;;;;;;5012132;28;20310;-63
2022/11/23 10:31:02;;;;;;;11.05;2.25;;;;;;;;;;5011967;28;20691;-63
2022/11/23 10:33:30;;;;;;;15.10;2.15;;;;;;;;;;5010944;28;20224;-63
2022/11/23 10:35:55;;;;;;;10.27;2.20;;;;;;;;;;5011290;28;20216;-63
2022/11/23 10:38:21;;;;;;;14.25;2.15;;;;;;;;;;5012799;28;20216;-63
2022/11/23 10:40:56;;;;;;;7.68;2.08;;;;;;;;;;4982318;28;20297;-63
2022/11/23 10:43:22;;;;;;;9.95;2.28;;;;;;;;;;4991203;28;20287;-63
2022/11/23 10:45:47;;;;;;;11.32;2.00;;;;;;;;;;4997075;28;20209;-63
2022/11/23 10:48:12;;;;;;;10.65;2.28;;;;;;;;;;5011699;28;20581;-63
2022/11/23 10:50:39;;;;;;;9.10;2.17;;;;;;;;;;5011085;28;20209;-64
2022/11/23 10:53:04;;;;;;;8.23;2.08;;;;;;;;;;5011187;28;20227;-63
2022/11/23 10:55:31;;;;;;;8.98;1.80;;;;;;;;;;5011894;28;20216;-63
2022/11/23 10:57:57;;;;;;;9.80;1.88;;;;;;;;;;5012862;28;20262;-64
2022/11/23 11:00:22;;;;;;;8.30;1.70;;;;;;;;;;5011293;28;20224;-64
2022/11/23 11:02:48;;;;;;;10.75;1.85;;;;;;;;;;5007745;28;20244;-64
2022/11/23 11:05:14;;;;;;;10.00;1.90;;;;;;;;;;4992332;28;20201;-64
2022/11/23 11:07:39;;;;;;;8.40;2.13;;;;;;;;;;4997930;28;20296;-63
2022/11/23 11:10:04;;;;;;;9.18;2.03;;;;;;;;;;5003317;28;20244;-64
2022/11/23 11:12:32;;;;;;;6.68;1.70;;;;;;;;;;4997214;28;20208;-65
2022/11/23 11:14:57;;;;;;;7.97;1.60;;;;;;;;;;4978714;28;20210;-65
2022/11/23 11:17:24;;;;;;;8.93;1.90;;;;;;;;;;4985638;28;20209;-65
2022/11/23 11:19:49;;;;;;;10.30;1.90;;;;;;;;;;4977375;28;20218;-65
2022/11/23 11:22:26;;;;;;;8.10;1.80;;;;;;;;;;4975222;28;20220;-65
2022/11/23 11:24:52;;;;;;;9.65;1.90;;;;;;;;;;4980127;28;20224;-65
2022/11/23 11:27:21;;;;;;;8.63;1.70;;;;;;;;;;4976824;28;20686;-65
2022/11/23 11:29:47;;;;;;;7.47;1.67;;;;;;;;;;4976289;28;20778;-65
2022/11/23 11:32:17;;;;;;;10.02;1.83;;;;;;;;;;4976559;28;20213;-65
2022/11/23 11:34:44;;;;;;;9.70;1.90;;;;;;;;;;4975979;28;20546;-65
2022/11/23 11:37:13;;;;;;;7.72;1.55;;;;;;;;;;4973886;28;20290;-65
2022/11/23 11:39:41;;;;;;;10.32;2.00;;;;;;;;;;4982072;28;20700;-65
2022/11/23 11:42:07;;;;;;;9.82;1.80;;;;;;;;;;5010562;28;20221;-65
2022/11/23 11:44:34;;;;;;;11.00;1.90;;;;;;;;;;4993971;28;20217;-65
2022/11/23 11:47:02;;;;;;;7.88;1.60;;;;;;;;;;5003276;28;20209;-65
2022/11/23 11:49:30;;;;;;;9.90;1.85;;;;;;;;;;4995356;28;20221;-65
2022/11/23 11:52:02;;;;;;;7.07;1.48;;;;;;;;;;4994230;28;20211;-65
2022/11/23 11:54:39;;;;;;;5.72;1.40;;;;;;;;;;4995917;28;20209;-65
2022/11/23 11:57:05;;;;;;;8.48;1.80;;;;;;;;;;4993895;28;20209;-64
2022/11/23 11:59:42;;;;;;;8.27;1.65;;;;;;;;;;4995640;28;20236;-65
2022/11/23 12:02:13;;;;;;;7.05;1.27;;;;;;;;;;4994495;28;20299;-65
2022/11/23 12:04:53;;;;;;;8.18;1.42;;;;;;;;;;4995449;28;20677;-65
2022/11/23 12:07:31;;;;;;;7.90;1.48;;;;;;;;;;4994835;28;20240;-65
2022/11/23 12:10:02;;;;;;;6.72;1.20;;;;;;;;;;4993574;28;20217;-65
2022/11/23 12:12:27;;;;;;;6.82;1.48;;;;;;;;;;4990413;28;20210;-65
2022/11/23 12:14:53;;;;;;;9.75;1.70;;;;;;;;;;4981384;28;20209;-65
2022/11/23 12:17:42;;;;;;;7.55;1.52;;;;;;;;;;4984690;28;20743;-64
2022/11/23 12:20:19;;;;;;;7.75;1.23;;;;;;;;;;4984217;28;20220;-64
2022/11/23 12:22:45;;;;;;;7.75;1.48;;;;;;;;;;4992900;28;20204;-63
2022/11/23 12:25:17;;;;;;;7.32;1.40;;;;;;;;;;4991159;28;20210;-63
2022/11/23 12:28:01;;;;;;;7.00;1.30;;;;;;;;;;5001353;28;20205;-63
2022/11/23 12:30:34;;;;;;;6.85;1.52;;;;;;;;;;4999600;28;20223;-63
2022/11/23 12:33:00;;;;;;;7.25;1.83;;;;;;;;;;4995167;28;20320;-63
2022/11/23 12:35:44;;;;;;;6.35;1.73;;;;;;;;;;4999710;28;20225;-62
2022/11/23 12:38:14;;;;;;;4.68;1.20;;;;;;;;;;5002883;28;20550;-63
2022/11/23 12:40:42;;;;;;;9.10;1.80;;;;;;;;;;5002017;28;20687;-64
2022/11/23 12:43:12;;;;;;;5.70;0.90;;;;;;;;;;4992654;28;20730;-63
2022/11/23 12:45:38;;;;;;;7.68;1.33;;;;;;;;;;4995495;28;20614;-64
2022/11/23 12:48:19;;;;;;;4.15;1.20;;;;;;;;;;4997319;28;20749;-63
2022/11/23 12:50:46;;;;;;;5.35;1.15;;;;;;;;;;4996681;28;20213;-63
2022/11/23 12:53:22;;;;;;;8.85;1.30;;;;;;;;;;4988556;28;20605;-64
2022/11/23 12:56:07;;;;;;;6.93;1.20;;;;;;;;;;4989405;28;20216;-63
2022/11/23 12:58:33;;;;;;;6.28;1.33;;;;;;;;;;4992290;28;20308;-63
2022/11/23 13:01:05;;;;;;;6.63;1.20;;;;;;;;;;5007068;28;20223;-63
2022/11/23 13:03:46;;;;;;;5.90;1.00;;;;;;;;;;4992927;28;20205;-63
2022/11/23 13:06:20;;;;;;;7.80;1.45;;;;;;;;;;4980942;28;20216;-64
2022/11/23 13:08:46;;;;;;;6.85;1.48;;;;;;;;;;4978953;28;20266;-64
2022/11/23 13:11:13;;;;;;;7.50;1.52;;;;;;;;;;4984895;28;20220;-63
2022/11/23 13:13:48;;;;;;;5.05;1.33;;;;;;;;;;4989118;28;20654;-63
2022/11/23 13:16:18;;;;;;;7.38;1.40;;;;;;;;;;4977713;28;20684;-64
2022/11/23 13:18:52;;;;;;;7.78;1.75;;;;;;;;;;4989252;28;20228;-64
2022/11/23 13:21:33;;;;;;;6.72;1.30;;;;;;;;;;4986048;28;20220;-64
2022/11/23 13:23:58;;;;;;;8.75;1.63;;;;;;;;;;4987082;28;20660;-63
2022/11/23 13:26:24;;;;;;;7.07;1.35;;;;;;;;;;4985528;28;20209;-63
2022/11/23 13:28:50;;;;;;;6.43;1.60;;;;;;;;;;4979787;28;20221;-64
2022/11/23 13:31:24;;;;;;;10.55;1.70;;;;;;;;;;4979356;28;20308;-64
2022/11/23 13:33:50;;;;;;;7.97;1.52;;;;;;;;;;4982766;28;20212;-64
2022/11/23 13:36:28;;;;;;;7.25;1.60;;;;;;;;;;4987944;28;20209;-64
2022/11/23 13:38:53;;;;;;;6.78;1.42;;;;;;;;;;4985415;28;20209;-64
2022/11/23 13:41:32;;;;;;;8.57;1.38;;;;;;;;;;4988152;28;20229;-63
2022/11/23 13:43:57;;;;;;;10.40;1.30;;;;;;;;;;4987975;28;20231;-63
2022/11/23 13:46:27;;;;;;;8.60;1.65;;;;;;;;;;4988934;28;20213;-63
2022/11/23 13:48:53;;;;;;;6.57;1.35;;;;;;;;;;4991578;28;20209;-64
2022/11/23 13:51:26;;;;;;;8.75;1.30;;;;;;;;;;4992542;28;20627;-63
2022/11/23 13:53:54;;;;;;;8.18;1.80;;;;;;;;;;4993855;28;20205;-63
2022/11/23 13:56:23;;;;;;;7.28;1.50;;;;;;;;;;4992911;28;20213;-63
2022/11/23 13:58:50;;;;;;;7.10;1.40;;;;;;;;;;4993996;28;20228;-64
2022/11/23 14:01:35;;;;;;;6.95;1.48;;;;;;;;;;4993487;28;20697;-64
2022/11/23 14:04:19;;;;;;;6.40;1.33;;;;;;;;;;4992856;28;20664;-64
2022/11/23 14:06:46;;;;;;;6.55;1.60;;;;;;;;;;4992758;28;20215;-63
2022/11/23 14:09:14;;;;;;;5.15;1.33;;;;;;;;;;4992056;28;20288;-64
2022/11/23 14:12:00;;;;;;;5.13;1.38;;;;;;;;;;4991916;28;20211;-64
2022/11/23 14:14:28;;;;;;;7.25;1.77;;;;;;;;;;4993780;28;20622;-64
2022/11/23 14:16:56;;;;;;;7.80;1.30;;;;;;;;;;4983913;28;20270;-64
2022/11/23 14:19:29;;;;;;;8.65;1.30;;;;;;;;;;4983576;28;20260;-64
2022/11/23 14:21:59;;;;;;;6.05;1.38;;;;;;;;;;4990304;28;20201;-64
2022/11/23 14:24:37;;;;;;;7.65;1.40;;;;;;;;;;4982905;28;20662;-64
2022/11/23 14:27:07;;;;;;;7.07;1.63;;;;;;;;;;4988943;28;20292;-64
2022/11/23 14:29:51;;;;;;;7.20;1.38;;;;;;;;;;4989817;28;20300;-64
2022/11/23 14:32:35;;;;;;;8.13;1.40;;;;;;;;;;4998334;28;20219;-64